createdAt,value
2022-09-16T00:00:47.856Z,9.70
2022-09-16T00:03:17.513Z,9.70
2022-09-16T00:05:46.756Z,9.70
2022-09-16T00:08:14.745Z,9.70
2022-09-16T00:10:44.686Z,9.80
2022-09-16T00:13:15.518Z,9.80
2022-09-16T00:15:47.493Z,9.80
2022-09-16T00:18:14.951Z,9.70
2022-09-16T00:20:49.827Z,9.70
2022-09-16T00:23:18.043Z,9.70
2022-09-16T00:25:44.934Z,9.70
2022-09-16T00:28:11.929Z,9.70
2022-09-16T00:30:38.804Z,9.70
2022-09-16T00:33:05.675Z,9.80
2022-09-16T00:35:32.550Z,9.90
2022-09-16T00:37:59.377Z,10.00
2022-09-16T00:40:26.315Z,10.00
2022-09-16T00:42:53.257Z,9.90
2022-09-16T00:45:23.359Z,9.90
2022-09-16T00:47:56.298Z,9.90
2022-09-16T00:50:26.117Z,10.00
2022-09-16T00:52:55.856Z,10.00
2022-09-16T00:55:30.129Z,10.00
2022-09-16T00:58:04.902Z,9.90
2022-09-16T01:00:32.405Z,9.80
2022-09-16T01:02:59.476Z,9.80
2022-09-16T01:05:26.794Z,9.70
2022-09-16T01:07:55.182Z,9.80
2022-09-16T01:10:24.804Z,9.70
2022-09-16T01:13:05.024Z,9.70
2022-09-16T01:15:51.730Z,9.70
2022-09-16T01:18:56.876Z,9.60
2022-09-16T01:21:47.938Z,9.60
2022-09-16T01:24:34.309Z,9.50
2022-09-16T01:27:36.198Z,9.50
2022-09-16T01:30:37.169Z,9.50
2022-09-16T01:33:27.418Z,9.40
2022-09-16T01:36:22.261Z,9.40
2022-09-16T01:39:22.506Z,9.40
2022-09-16T01:41:55.383Z,9.40
2022-09-16T01:44:48.029Z,9.30
2022-09-16T01:47:33.439Z,9.30
2022-09-16T01:50:17.745Z,9.30
2022-09-16T01:53:01.205Z,9.30
2022-09-16T01:55:39.490Z,9.50
2022-09-16T01:58:10.767Z,9.50
2022-09-16T02:00:39.912Z,9.60
2022-09-16T02:03:11.820Z,9.60
2022-09-16T02:05:46.247Z,9.60
2022-09-16T02:08:17.739Z,9.60
2022-09-16T02:10:51.024Z,9.50
2022-09-16T02:13:23.568Z,9.50
2022-09-16T02:15:53.773Z,9.40
2022-09-16T02:18:26.881Z,9.40
2022-09-16T02:20:57.612Z,9.30
2022-09-16T02:23:31.252Z,9.30
2022-09-16T02:26:00.325Z,9.30
2022-09-16T02:28:33.463Z,9.40
2022-09-16T02:31:05.512Z,9.30
2022-09-16T02:33:56.998Z,9.30
2022-09-16T02:36:26.421Z,9.30
2022-09-16T02:39:08.679Z,9.30
2022-09-16T02:41:40.729Z,9.30
2022-09-16T02:44:09.536Z,9.30
2022-09-16T02:47:12.184Z,9.20
2022-09-16T02:49:46.177Z,9.20
2022-09-16T02:52:57.520Z,9.20
2022-09-16T02:55:38.385Z,9.20
2022-09-16T02:58:06.637Z,9.10
2022-09-16T03:00:41.263Z,9.10
2022-09-16T03:03:09.460Z,9.10
2022-09-16T03:05:36.515Z,9.10
2022-09-16T03:08:04.240Z,9.10
2022-09-16T03:10:42.723Z,9.10
2022-09-16T03:13:16.571Z,9.10
2022-09-16T03:15:58.798Z,9.10
2022-09-16T03:19:01.383Z,9.10
2022-09-16T03:21:53.194Z,9.00
2022-09-16T03:24:20.030Z,9.00
2022-09-16T03:27:21.139Z,9.00
2022-09-16T03:29:56.003Z,9.00
2022-09-16T03:32:24.557Z,9.10
2022-09-16T03:35:22.943Z,9.20
2022-09-16T03:37:50.832Z,9.20
2022-09-16T03:40:20.351Z,9.20
2022-09-16T03:42:47.416Z,9.10
2022-09-16T03:45:22.023Z,9.10
2022-09-16T03:47:50.805Z,9.10
2022-09-16T03:50:19.156Z,9.10
2022-09-16T03:52:46.086Z,9.00
2022-09-16T03:55:13.646Z,9.00
2022-09-16T03:57:40.507Z,9.00
2022-09-16T04:00:08.787Z,9.00
2022-09-16T04:02:35.905Z,9.00
2022-09-16T04:05:03.740Z,9.00
2022-09-16T04:07:33.693Z,9.00
2022-09-16T04:10:01.933Z,8.90
2022-09-16T04:12:29.352Z,9.00
2022-09-16T04:14:56.523Z,8.90
2022-09-16T04:17:23.917Z,8.90
2022-09-16T04:19:52.982Z,9.00
2022-09-16T04:22:19.974Z,8.90
2022-09-16T04:24:46.814Z,8.90
2022-09-16T04:27:13.673Z,9.00
2022-09-16T04:29:40.549Z,8.90
2022-09-16T04:32:07.450Z,8.90
2022-09-16T04:34:34.306Z,8.90
2022-09-16T04:37:01.196Z,8.90
2022-09-16T04:39:28.365Z,8.90
2022-09-16T04:41:55.251Z,8.90
2022-09-16T04:44:22.201Z,8.80
2022-09-16T04:46:49.035Z,8.80
2022-09-16T04:49:16.068Z,8.80
2022-09-16T04:51:42.975Z,8.80
2022-09-16T04:54:09.931Z,8.70
2022-09-16T04:56:36.747Z,8.70
2022-09-16T04:59:05.702Z,8.70
2022-09-16T05:01:35.189Z,8.70
2022-09-16T05:04:04.077Z,8.70
2022-09-16T05:06:36.832Z,8.80
2022-09-16T05:09:04.049Z,8.70
2022-09-16T05:11:36.074Z,8.70
2022-09-16T05:14:05.035Z,8.70
2022-09-16T05:16:32.944Z,8.80
2022-09-16T05:19:01.892Z,8.70
2022-09-16T05:21:29.055Z,8.80
2022-09-16T05:23:59.600Z,8.70
2022-09-16T05:26:28.732Z,8.70
2022-09-16T05:28:55.718Z,8.70
2022-09-16T05:31:27.447Z,8.70
2022-09-16T05:34:01.996Z,8.70
2022-09-16T05:36:31.609Z,8.80
2022-09-16T05:39:21.709Z,8.80
2022-09-16T05:41:46.213Z,8.90
2022-09-16T05:44:13.993Z,8.90
2022-09-16T05:46:41.390Z,9.00
2022-09-16T05:49:08.865Z,9.00
2022-09-16T05:51:38.098Z,9.00
2022-09-16T05:54:05.305Z,9.00
2022-09-16T05:56:32.633Z,9.00
2022-09-16T05:59:00.819Z,8.90
2022-09-16T06:01:31.801Z,8.90
2022-09-16T06:04:01.422Z,8.80
2022-09-16T06:06:33.758Z,8.80
2022-09-16T06:09:06.387Z,8.80
2022-09-16T06:11:38.287Z,8.80
2022-09-16T06:14:06.160Z,8.70
2022-09-16T06:16:33.574Z,8.70
2022-09-16T06:19:02.579Z,8.70
2022-09-16T06:21:29.631Z,8.80
2022-09-16T06:23:57.173Z,8.80
2022-09-16T06:26:25.813Z,8.80
2022-09-16T06:28:53.465Z,8.80
2022-09-16T06:31:23.016Z,8.80
2022-09-16T06:33:50.753Z,8.80
2022-09-16T06:36:23.557Z,8.80
2022-09-16T06:38:51.298Z,8.80
2022-09-16T06:41:21.021Z,8.80
2022-09-16T06:43:51.871Z,8.80
2022-09-16T06:46:25.303Z,8.80
2022-09-16T06:48:54.564Z,8.90
2022-09-16T06:51:23.665Z,8.90
2022-09-16T06:53:51.544Z,9.00
2022-09-16T06:56:20.569Z,9.00
2022-09-16T06:58:49.516Z,9.00
2022-09-16T07:01:19.076Z,9.10
2022-09-16T07:03:48.476Z,9.10
2022-09-16T07:06:16.338Z,9.10
2022-09-16T07:08:44.350Z,9.10
2022-09-16T07:11:13.769Z,9.10
2022-09-16T07:13:41.483Z,9.10
2022-09-16T07:16:14.334Z,9.10
2022-09-16T07:18:42.332Z,9.20
2022-09-16T07:21:11.997Z,9.30
2022-09-16T07:23:40.355Z,9.30
2022-09-16T07:26:12.895Z,9.40
2022-09-16T07:28:41.019Z,9.50
2022-09-16T07:31:13.916Z,9.50
2022-09-16T07:33:43.594Z,9.50
2022-09-16T07:36:13.269Z,9.50
2022-09-16T07:38:40.112Z,9.50
2022-09-16T07:41:13.612Z,9.50
2022-09-16T07:43:41.924Z,9.60
2022-09-16T07:46:10.787Z,9.60
2022-09-16T07:48:38.214Z,9.60
2022-09-16T07:51:07.959Z,9.70
2022-09-16T07:53:35.600Z,9.70
2022-09-16T07:56:12.484Z,9.80
2022-09-16T07:58:40.591Z,9.80
2022-09-16T08:01:08.358Z,9.90
2022-09-16T08:03:36.428Z,9.90
2022-09-16T08:06:20.538Z,9.90
2022-09-16T08:08:48.341Z,10.00
2022-09-16T08:11:15.747Z,10.20
2022-09-16T08:13:44.092Z,10.30
2022-09-16T08:16:16.463Z,10.40
2022-09-16T08:18:44.337Z,10.40
2022-09-16T08:21:22.883Z,10.50
2022-09-16T08:23:50.333Z,10.50
2022-09-16T08:26:20.036Z,10.50
2022-09-16T08:31:36.576Z,10.30
2022-09-16T08:34:04.047Z,10.30
2022-09-16T08:36:33.260Z,10.40
2022-09-16T08:39:00.174Z,10.50
2022-09-16T08:41:27.043Z,10.60
2022-09-16T08:43:56.702Z,10.70
2022-09-16T08:46:53.251Z,10.80
2022-09-16T08:49:26.811Z,10.90
2022-09-16T08:51:55.249Z,10.90
2022-09-16T08:54:27.389Z,10.80
2022-09-16T08:57:02.041Z,10.70
2022-09-16T08:59:41.010Z,10.80
2022-09-16T09:02:47.873Z,10.80
2022-09-16T09:05:19.856Z,10.90
2022-09-16T09:08:10.987Z,11.00
2022-09-16T09:10:40.884Z,11.10
2022-09-16T09:13:46.480Z,11.30
2022-09-16T09:16:35.348Z,11.30
2022-09-16T09:19:02.159Z,11.40
2022-09-16T09:21:37.269Z,11.50
2022-09-16T09:24:35.153Z,11.70
2022-09-16T09:27:36.126Z,11.70
2022-09-16T09:30:21.425Z,11.90
2022-09-16T09:33:00.473Z,11.80
2022-09-16T09:35:47.774Z,11.90
2022-09-16T09:38:45.381Z,11.90
2022-09-16T09:41:18.577Z,12.00
2022-09-16T09:44:20.345Z,12.10
2022-09-16T09:46:52.517Z,12.00
2022-09-16T09:49:39.334Z,12.00
2022-09-16T09:52:10.975Z,12.00
2022-09-16T09:54:39.113Z,12.30
2022-09-16T09:57:27.070Z,12.30
2022-09-16T10:00:12.139Z,12.20
2022-09-16T10:02:47.609Z,12.20
2022-09-16T10:05:29.668Z,12.30
2022-09-16T10:08:02.308Z,12.50
2022-09-16T10:10:33.308Z,12.60
2022-09-16T10:13:13.272Z,12.70
2022-09-16T10:15:41.408Z,12.50
2022-09-16T10:18:32.520Z,12.60
2022-09-16T10:21:11.609Z,12.70
2022-09-16T10:23:39.306Z,12.80
2022-09-16T10:26:08.080Z,12.70
2022-09-16T10:28:35.579Z,12.70
2022-09-16T10:31:02.864Z,12.60
2022-09-16T10:33:34.192Z,12.70
2022-09-16T10:36:07.223Z,12.80
2022-09-16T10:38:42.215Z,12.90
2022-09-16T10:41:19.916Z,13.10
2022-09-16T10:44:25.152Z,13.30
2022-09-16T10:47:09.339Z,13.20
2022-09-16T10:50:03.397Z,13.10
2022-09-16T10:52:40.389Z,12.70
2022-09-16T10:55:26.172Z,12.30
2022-09-16T10:57:55.208Z,12.10
2022-09-16T11:00:32.310Z,12.40
2022-09-16T11:03:29.227Z,12.60
2022-09-16T11:05:58.807Z,13.00
2022-09-16T11:08:40.679Z,13.20
2022-09-16T11:11:22.949Z,13.50
2022-09-16T11:14:11.733Z,13.80
2022-09-16T11:16:57.272Z,13.80
2022-09-16T11:19:33.173Z,13.90
2022-09-16T11:22:02.785Z,13.90
2022-09-16T11:24:29.586Z,13.80
2022-09-16T11:27:04.900Z,13.80
2022-09-16T11:30:16.769Z,14.00
2022-09-16T11:33:04.319Z,14.10
2022-09-16T11:36:23.691Z,14.00
2022-09-16T11:39:22.278Z,14.00
2022-09-16T11:42:10.575Z,14.00
2022-09-16T11:44:37.367Z,13.40
2022-09-16T11:47:29.092Z,12.90
2022-09-16T11:50:15.474Z,12.70
2022-09-16T11:52:42.354Z,13.10
2022-09-16T11:55:42.432Z,13.70
2022-09-16T11:58:45.321Z,14.20
2022-09-16T12:01:44.612Z,14.50
2022-09-16T12:04:29.702Z,15.00
2022-09-16T12:07:10.405Z,16.00
2022-09-16T12:09:48.557Z,15.90
2022-09-16T12:12:20.221Z,15.90
2022-09-16T12:15:06.755Z,15.90
2022-09-16T12:17:40.648Z,16.10
2022-09-16T12:20:16.640Z,15.90
2022-09-16T12:23:20.425Z,15.80
2022-09-16T12:26:10.778Z,15.30
2022-09-16T12:28:37.623Z,14.70
2022-09-16T12:31:24.097Z,14.40
2022-09-16T12:34:14.689Z,14.00
2022-09-16T12:36:47.918Z,14.10
2022-09-16T12:39:15.732Z,13.90
2022-09-16T12:42:03.968Z,14.60
2022-09-16T12:44:51.965Z,15.90
2022-09-16T12:47:51.851Z,17.00
2022-09-16T12:50:44.147Z,17.70
2022-09-16T12:53:34.043Z,17.60
2022-09-16T12:56:14.315Z,16.90
2022-09-16T12:59:02.133Z,15.20
2022-09-16T13:01:44.787Z,15.00
2022-09-16T13:04:26.402Z,15.30
2022-09-16T13:07:00.010Z,15.00
2022-09-16T13:09:33.132Z,15.50
2022-09-16T13:12:42.818Z,16.40
2022-09-16T13:15:08.208Z,15.70
2022-09-16T13:17:37.462Z,15.00
2022-09-16T13:20:15.767Z,14.90
2022-09-16T13:22:51.624Z,16.10
2022-09-16T13:25:21.544Z,18.70
2022-09-16T13:27:57.695Z,19.10
2022-09-16T13:30:42.455Z,19.30
2022-09-16T13:33:09.541Z,19.30
2022-09-16T13:35:44.184Z,20.10
2022-09-16T13:38:19.592Z,19.40
2022-09-16T13:41:03.015Z,19.20
2022-09-16T13:43:36.061Z,17.40
2022-09-16T13:46:18.763Z,17.70
2022-09-16T13:48:54.057Z,18.30
2022-09-16T13:51:22.954Z,19.80
2022-09-16T13:53:54.075Z,19.80
2022-09-16T13:56:40.482Z,20.60
2022-09-16T13:59:19.316Z,19.70
2022-09-16T14:02:21.723Z,19.80
2022-09-16T14:05:13.528Z,19.30
2022-09-16T14:07:50.160Z,19.80
2022-09-16T14:10:24.673Z,19.90
2022-09-16T14:13:12.240Z,18.20
2022-09-16T14:15:45.452Z,17.80
2022-09-16T14:18:18.942Z,17.90
2022-09-16T14:21:05.536Z,17.40
2022-09-16T14:23:33.944Z,17.80
2022-09-16T14:26:18.895Z,17.00
2022-09-16T14:28:46.036Z,16.60
2022-09-16T14:31:22.644Z,17.90
2022-09-16T14:34:04.704Z,18.80
2022-09-16T14:36:40.599Z,18.80
2022-09-16T14:39:07.486Z,19.00
2022-09-16T14:41:51.101Z,19.60
2022-09-16T14:44:21.043Z,20.20
2022-09-16T14:47:29.342Z,19.40
2022-09-16T14:50:32.497Z,18.90
2022-09-16T14:53:05.194Z,19.10
2022-09-16T14:55:38.534Z,18.00
2022-09-16T14:58:05.761Z,17.30
2022-09-16T15:00:49.260Z,18.20
2022-09-16T15:03:24.798Z,18.80
2022-09-16T15:05:54.238Z,19.60
2022-09-16T15:08:26.492Z,19.00
2022-09-16T15:11:46.052Z,18.20
2022-09-16T15:14:11.355Z,17.60
2022-09-16T15:16:51.098Z,16.60
2022-09-16T15:19:27.600Z,16.10
2022-09-16T15:21:54.896Z,16.90
2022-09-16T15:24:29.047Z,18.10
2022-09-16T15:26:56.787Z,19.10
2022-09-16T15:29:23.637Z,19.50
2022-09-16T15:31:51.117Z,19.60
2022-09-16T15:34:26.723Z,18.80
2022-09-16T15:37:00.048Z,16.80
2022-09-16T15:39:31.977Z,15.20
2022-09-16T15:42:24.005Z,14.80
2022-09-16T15:44:56.702Z,14.80
2022-09-16T15:47:29.016Z,14.70
2022-09-16T15:50:14.371Z,14.90
2022-09-16T15:53:07.797Z,15.00
2022-09-16T15:55:51.384Z,15.30
2022-09-16T15:58:24.263Z,15.40
2022-09-16T16:01:00.895Z,15.60
2022-09-16T16:03:31.953Z,15.70
2022-09-16T16:05:58.952Z,15.60
2022-09-16T16:08:46.108Z,15.30
2022-09-16T16:11:17.487Z,16.10
2022-09-16T16:13:44.933Z,16.50
2022-09-16T16:16:14.540Z,16.50
2022-09-16T16:18:44.081Z,16.10
2022-09-16T16:21:14.782Z,16.20
2022-09-16T16:23:42.302Z,17.20
2022-09-16T16:26:10.622Z,18.20
2022-09-16T16:28:38.717Z,18.80
2022-09-16T16:31:17.929Z,17.80
2022-09-16T16:33:46.836Z,17.50
2022-09-16T16:36:19.311Z,16.40
2022-09-16T16:38:48.003Z,15.80
2022-09-16T16:41:22.808Z,15.70
2022-09-16T16:43:50.974Z,15.50
2022-09-16T16:46:18.765Z,15.70
2022-09-16T16:48:45.629Z,16.60
2022-09-16T16:51:13.516Z,16.70
2022-09-16T16:53:40.661Z,17.00
2022-09-16T16:56:15.059Z,16.90
2022-09-16T16:58:43.465Z,16.60
2022-09-16T17:01:20.825Z,16.90
2022-09-16T17:03:51.221Z,16.40
2022-09-16T17:06:18.437Z,15.50
2022-09-16T17:08:45.346Z,15.00
2022-09-16T17:11:18.575Z,14.90
2022-09-16T17:13:47.953Z,15.10
2022-09-16T17:16:18.068Z,15.80
2022-09-16T17:18:45.299Z,15.80
2022-09-16T17:21:17.714Z,15.40
2022-09-16T17:23:45.027Z,15.20
2022-09-16T17:26:13.199Z,15.00
2022-09-16T17:28:43.140Z,14.90
2022-09-16T17:31:17.897Z,14.80
2022-09-16T17:33:45.147Z,14.50
2022-09-16T17:36:14.917Z,14.30
2022-09-16T17:38:42.225Z,14.30
2022-09-16T17:41:11.641Z,13.90
2022-09-16T17:43:39.939Z,14.00
2022-09-16T17:46:08.815Z,13.90
2022-09-16T17:48:37.544Z,13.80
2022-09-16T17:51:04.911Z,13.70
2022-09-16T17:53:32.061Z,13.40
2022-09-16T17:56:10.133Z,13.40
2022-09-16T17:58:39.167Z,13.20
2022-09-16T18:01:20.923Z,13.40
2022-09-16T18:03:50.241Z,13.30
2022-09-16T18:06:19.652Z,13.40
2022-09-16T18:08:49.031Z,13.50
2022-09-16T18:11:17.480Z,13.40
2022-09-16T18:13:46.622Z,13.00
2022-09-16T18:16:16.031Z,13.10
2022-09-16T18:18:44.109Z,12.70
2022-09-16T18:21:17.814Z,12.80
2022-09-16T18:23:45.374Z,12.70
2022-09-16T18:26:14.540Z,12.50
2022-09-16T18:29:08.056Z,12.70
2022-09-16T18:31:32.179Z,12.70
2022-09-16T18:33:59.100Z,12.90
2022-09-16T18:36:29.936Z,12.70
2022-09-16T18:38:59.146Z,12.60
2022-09-16T18:41:31.741Z,12.70
2022-09-16T18:44:01.071Z,12.60
2022-09-16T18:46:31.164Z,12.50
2022-09-16T18:48:59.225Z,12.60
2022-09-16T18:51:30.485Z,12.50
2022-09-16T18:54:00.786Z,12.50
2022-09-16T18:56:29.917Z,12.40
2022-09-16T18:59:23.357Z,12.50
2022-09-16T19:01:55.450Z,12.40
2022-09-16T19:04:26.033Z,12.30
2022-09-16T19:06:55.028Z,12.40
2022-09-16T19:09:23.836Z,12.30
2022-09-16T19:11:52.872Z,12.50
2022-09-16T19:14:22.546Z,12.30
2022-09-16T19:16:49.512Z,12.10
2022-09-16T19:19:16.568Z,12.00
2022-09-16T19:21:43.951Z,12.00
2022-09-16T19:24:22.910Z,12.00
2022-09-16T19:26:52.093Z,11.80
2022-09-16T19:29:19.471Z,11.80
2022-09-16T19:31:48.444Z,11.70
2022-09-16T19:34:16.690Z,11.60
2022-09-16T19:36:44.031Z,11.50
2022-09-16T19:39:12.317Z,11.60
2022-09-16T19:41:41.523Z,11.60
2022-09-16T19:44:12.994Z,11.50
2022-09-16T19:46:42.685Z,11.60
2022-09-16T19:49:14.388Z,11.60
2022-09-16T19:51:42.199Z,11.50
2022-09-16T19:54:09.028Z,11.50
2022-09-16T19:56:35.914Z,11.50
2022-09-16T19:59:03.125Z,11.30
2022-09-16T20:01:33.070Z,11.30
2022-09-16T20:04:01.516Z,11.30
2022-09-16T20:06:35.036Z,11.30
2022-09-16T20:09:05.329Z,11.30
2022-09-16T20:11:37.066Z,11.30
2022-09-16T20:14:06.301Z,11.30
2022-09-16T20:16:35.988Z,11.20
2022-09-16T20:19:10.086Z,11.10
2022-09-16T20:21:37.935Z,11.00
2022-09-16T20:24:06.750Z,10.90
2022-09-16T20:26:34.973Z,10.90
2022-09-16T20:29:03.100Z,10.90
2022-09-16T20:31:32.698Z,10.90
2022-09-16T20:33:59.677Z,10.90
2022-09-16T20:36:29.957Z,10.80
2022-09-16T20:38:59.639Z,10.80
2022-09-16T20:41:29.497Z,10.80
2022-09-16T20:43:57.005Z,10.80
2022-09-16T20:46:29.113Z,10.70
2022-09-16T20:48:58.568Z,10.60
2022-09-16T20:51:31.492Z,10.60
2022-09-16T20:54:07.843Z,10.60
2022-09-16T20:56:38.336Z,10.60
2022-09-16T20:59:10.064Z,10.50
2022-09-16T21:01:38.595Z,10.60
2022-09-16T21:04:11.262Z,10.60
2022-09-16T21:06:38.216Z,10.70
2022-09-16T21:09:08.252Z,10.70
2022-09-16T21:11:35.738Z,10.80
2022-09-16T21:14:07.049Z,10.80
2022-09-16T21:16:36.236Z,10.90
2022-09-16T21:19:05.556Z,11.00
2022-09-16T21:21:32.423Z,10.90
2022-09-16T21:24:01.541Z,10.90
2022-09-16T21:26:32.688Z,10.90
2022-09-16T21:29:08.976Z,10.80
2022-09-16T21:31:38.027Z,10.80
2022-09-16T21:34:06.650Z,10.80
2022-09-16T21:36:35.408Z,10.80
2022-09-16T21:39:02.500Z,10.80
2022-09-16T21:41:29.731Z,10.80
2022-09-16T21:43:57.716Z,10.70
2022-09-16T21:46:41.501Z,10.80
2022-09-16T21:49:23.266Z,10.90
2022-09-16T21:51:51.761Z,10.90
2022-09-16T21:54:20.398Z,10.80
2022-09-16T21:56:48.600Z,10.80
2022-09-16T21:59:15.703Z,10.80
2022-09-16T22:01:42.739Z,10.80
2022-09-16T22:04:21.844Z,10.80
2022-09-16T22:06:50.216Z,10.60
2022-09-16T22:09:17.680Z,10.60
2022-09-16T22:11:44.728Z,10.40
2022-09-16T22:14:12.391Z,10.30
2022-09-16T22:16:40.124Z,10.40
2022-09-16T22:19:10.054Z,10.30
2022-09-16T22:21:39.784Z,10.40
2022-09-16T22:24:07.713Z,10.50
2022-09-16T22:26:35.279Z,10.50
2022-09-16T22:29:02.489Z,10.50
2022-09-16T22:31:31.926Z,10.50
2022-09-16T22:34:01.396Z,10.50
2022-09-16T22:36:30.558Z,10.50
2022-09-16T22:39:04.903Z,10.50
2022-09-16T22:41:32.765Z,10.50
2022-09-16T22:44:00.000Z,10.50
2022-09-16T22:46:32.493Z,10.60
2022-09-16T22:48:59.971Z,10.60
2022-09-16T22:51:28.946Z,10.60
2022-09-16T22:53:56.232Z,10.70
2022-09-16T22:56:27.044Z,10.70
2022-09-16T22:58:55.503Z,10.60
2022-09-16T23:01:28.081Z,10.60
2022-09-16T23:03:59.560Z,10.60
2022-09-16T23:06:28.968Z,10.60
2022-09-16T23:08:56.194Z,10.50
2022-09-16T23:11:26.137Z,10.50
2022-09-16T23:13:54.920Z,10.40
2022-09-16T23:16:26.248Z,10.30
2022-09-16T23:18:54.851Z,10.30
2022-09-16T23:21:22.447Z,10.20
2022-09-16T23:23:52.583Z,10.20
2022-09-16T23:26:23.278Z,10.20
2022-09-16T23:28:58.263Z,10.10
2022-09-16T23:31:29.361Z,10.00
2022-09-16T23:33:57.075Z,9.90
2022-09-16T23:36:25.896Z,10.00
2022-09-16T23:38:53.959Z,9.90
2022-09-16T23:41:23.180Z,10.00
2022-09-16T23:43:51.277Z,10.00
2022-09-16T23:46:20.397Z,10.00
2022-09-16T23:48:48.212Z,10.10
2022-09-16T23:51:15.042Z,10.10
2022-09-16T23:53:45.168Z,10.00
2022-09-16T23:56:14.272Z,9.90
2022-09-16T23:58:42.229Z,9.90
